createdAt,value
2017-05-05T00:01:00.311Z,8.13
2017-05-05T00:02:00.882Z,8.06
2017-05-05T00:03:01.468Z,8.05
2017-05-05T00:04:02.041Z,8.00
2017-05-05T00:05:02.610Z,8.13
2017-05-05T00:06:03.181Z,8.13
2017-05-05T00:07:03.753Z,8.08
2017-05-05T00:08:04.325Z,8.15
2017-05-05T00:09:04.895Z,8.05
2017-05-05T00:10:05.466Z,8.10
2017-05-05T00:11:06.037Z,8.09
2017-05-05T00:12:06.608Z,8.08
2017-05-05T00:13:07.178Z,8.16
2017-05-05T00:14:07.750Z,8.03
2017-05-05T00:15:08.337Z,8.16
2017-05-05T00:16:08.907Z,8.10
2017-05-05T00:17:09.491Z,8.10
2017-05-05T00:18:10.062Z,8.01
2017-05-05T00:19:10.635Z,8.06
2017-05-05T00:20:11.205Z,8.08
2017-05-05T00:21:11.789Z,8.13
2017-05-05T00:22:12.359Z,8.13
2017-05-05T00:23:12.930Z,8.16
2017-05-05T00:24:13.502Z,8.13
2017-05-05T00:25:14.073Z,8.19
2017-05-05T00:26:14.644Z,8.15
2017-05-05T00:27:15.214Z,8.12
2017-05-05T00:28:15.786Z,8.18
2017-05-05T00:29:16.357Z,8.15
2017-05-05T00:30:16.928Z,8.15
2017-05-05T00:31:17.501Z,8.13
2017-05-05T00:32:18.070Z,8.12
2017-05-05T00:33:18.644Z,8.10
2017-05-05T00:34:19.216Z,8.16
2017-05-05T00:35:19.790Z,8.23
2017-05-05T00:36:20.360Z,8.03
2017-05-05T00:37:20.933Z,8.09
2017-05-05T00:38:21.516Z,8.03
2017-05-05T00:39:22.088Z,8.03
2017-05-05T00:40:22.671Z,8.13
2017-05-05T00:41:23.234Z,8.06
2017-05-05T00:42:23.807Z,8.06
2017-05-05T00:43:24.378Z,8.10
2017-05-05T00:44:24.950Z,8.13
2017-05-05T00:45:25.535Z,8.03
2017-05-05T00:46:26.108Z,8.06
2017-05-05T00:47:26.681Z,8.08
2017-05-05T00:48:27.252Z,8.20
2017-05-05T00:49:27.826Z,8.12
2017-05-05T00:50:28.399Z,8.08
2017-05-05T00:51:28.969Z,8.09
2017-05-05T00:52:29.540Z,8.08
2017-05-05T00:53:30.112Z,8.00
2017-05-05T00:54:30.683Z,8.01
2017-05-05T00:55:31.253Z,8.08
2017-05-05T00:56:31.839Z,8.05
2017-05-05T00:57:32.410Z,8.01
2017-05-05T00:58:32.982Z,7.97
2017-05-05T00:59:33.554Z,7.90
2017-05-05T01:00:34.125Z,7.98
2017-05-05T01:01:34.696Z,7.97
2017-05-05T01:02:35.267Z,7.95
2017-05-05T01:03:35.839Z,7.97
2017-05-05T01:04:36.412Z,8.08
2017-05-05T01:05:36.982Z,8.05
2017-05-05T01:06:37.554Z,8.03
2017-05-05T01:07:38.125Z,8.05
2017-05-05T01:08:38.695Z,7.98
2017-05-05T01:09:39.267Z,8.00
2017-05-05T01:10:39.839Z,8.01
2017-05-05T01:11:40.412Z,8.12
2017-05-05T01:12:40.986Z,8.08
2017-05-05T01:13:41.557Z,8.10
2017-05-05T01:14:42.128Z,8.03
2017-05-05T01:15:42.702Z,8.03
2017-05-05T01:16:43.278Z,8.06
2017-05-05T01:17:43.862Z,8.03
2017-05-05T01:18:44.448Z,8.05
2017-05-05T01:19:45.018Z,8.09
2017-05-05T01:20:45.591Z,8.08
2017-05-05T01:21:46.165Z,8.01
2017-05-05T01:22:46.737Z,8.06
2017-05-05T01:23:47.310Z,8.00
2017-05-05T01:24:47.882Z,7.98
2017-05-05T01:25:48.456Z,8.00
2017-05-05T01:26:49.027Z,8.03
2017-05-05T01:27:49.603Z,8.06
2017-05-05T01:28:50.172Z,8.06
2017-05-05T01:29:50.744Z,7.97
2017-05-05T01:30:51.317Z,8.06
2017-05-05T01:31:51.889Z,8.00
2017-05-05T01:32:52.462Z,8.05
2017-05-05T01:33:53.047Z,8.06
2017-05-05T01:34:53.633Z,8.06
2017-05-05T01:35:54.206Z,8.05
2017-05-05T01:36:54.778Z,7.98
2017-05-05T01:37:55.350Z,8.03
2017-05-05T01:38:55.922Z,8.05
2017-05-05T01:39:56.497Z,8.12
2017-05-05T01:40:57.067Z,8.06
2017-05-05T01:41:57.639Z,8.09
2017-05-05T01:42:58.212Z,8.03
2017-05-05T01:43:58.784Z,7.98
2017-05-05T01:44:59.359Z,8.01
2017-05-05T01:45:59.931Z,8.13
2017-05-05T01:47:00.504Z,8.03
2017-05-05T01:48:01.076Z,8.00
2017-05-05T01:49:01.649Z,8.05
2017-05-05T01:50:02.221Z,8.10
2017-05-05T01:51:02.792Z,8.09
2017-05-05T01:52:03.368Z,8.03
2017-05-05T01:53:03.934Z,8.00
2017-05-05T01:54:04.521Z,7.97
2017-05-05T01:55:05.092Z,7.94
2017-05-05T01:56:05.663Z,8.00
2017-05-05T01:57:06.235Z,8.06
2017-05-05T01:58:06.806Z,8.01
2017-05-05T01:59:07.377Z,8.06
2017-05-05T02:00:07.962Z,8.03
2017-05-05T02:01:08.534Z,8.05
2017-05-05T02:02:09.105Z,7.94
2017-05-05T02:03:09.676Z,8.01
2017-05-05T02:04:10.248Z,8.06
2017-05-05T02:05:10.819Z,7.94
2017-05-05T02:06:11.391Z,7.93
2017-05-05T02:07:11.975Z,7.97
2017-05-05T02:08:12.550Z,7.90
2017-05-05T02:09:13.122Z,7.94
2017-05-05T02:10:13.695Z,7.95
2017-05-05T02:11:14.267Z,7.98
2017-05-05T02:12:14.841Z,7.88
2017-05-05T02:13:15.413Z,8.10
2017-05-05T02:14:15.983Z,8.06
2017-05-05T02:15:16.558Z,8.10
2017-05-05T02:16:17.130Z,8.06
2017-05-05T02:17:17.704Z,8.00
2017-05-05T02:18:18.274Z,8.05
2017-05-05T02:19:18.849Z,8.06
2017-05-05T02:20:19.420Z,8.05
2017-05-05T02:21:19.993Z,7.95
2017-05-05T02:22:20.565Z,7.95
2017-05-05T02:23:21.143Z,8.03
2017-05-05T02:24:21.709Z,8.03
2017-05-05T02:25:22.282Z,8.03
2017-05-05T02:26:22.858Z,7.93
2017-05-05T02:27:23.444Z,8.03
2017-05-05T02:28:24.015Z,7.97
2017-05-05T02:29:24.589Z,8.03
2017-05-05T02:30:25.163Z,7.95
2017-05-05T02:31:25.736Z,7.95
2017-05-05T02:32:26.309Z,7.94
2017-05-05T02:33:26.881Z,7.94
2017-05-05T02:34:27.468Z,7.97
2017-05-05T02:35:28.056Z,7.98
2017-05-05T02:36:28.628Z,8.01
2017-05-05T02:37:29.203Z,8.08
2017-05-05T02:38:29.775Z,8.03
2017-05-05T02:39:30.349Z,7.95
2017-05-05T02:40:30.919Z,7.95
2017-05-05T02:41:31.491Z,7.97
2017-05-05T02:42:32.062Z,7.88
2017-05-05T02:43:32.634Z,7.94
2017-05-05T02:44:33.208Z,8.03
2017-05-05T02:45:33.776Z,8.05
2017-05-05T02:46:34.351Z,7.95
2017-05-05T02:47:34.920Z,7.94
2017-05-05T02:48:35.493Z,8.06
2017-05-05T02:49:36.066Z,7.95
2017-05-05T02:50:36.641Z,8.03
2017-05-05T02:51:37.212Z,8.06
2017-05-05T02:52:37.784Z,7.97
2017-05-05T02:53:38.356Z,7.93
2017-05-05T02:54:38.941Z,8.03
2017-05-05T02:55:39.514Z,8.06
2017-05-05T02:56:40.085Z,8.05
2017-05-05T02:57:40.659Z,8.00
2017-05-05T02:58:41.231Z,7.94
2017-05-05T02:59:41.803Z,7.93
2017-05-05T03:00:42.374Z,7.95
2017-05-05T03:01:42.947Z,7.95
2017-05-05T03:02:43.517Z,7.95
2017-05-05T03:03:44.088Z,8.06
2017-05-05T03:04:44.660Z,8.00
2017-05-05T03:05:45.232Z,8.05
2017-05-05T03:06:45.803Z,7.97
2017-05-05T03:07:46.375Z,8.03
2017-05-05T03:08:46.949Z,8.00
2017-05-05T03:09:47.521Z,7.94
2017-05-05T03:10:48.096Z,7.91
2017-05-05T03:11:48.666Z,8.09
2017-05-05T03:12:49.240Z,8.06
2017-05-05T03:13:49.812Z,8.06
2017-05-05T03:14:50.397Z,7.91
2017-05-05T03:15:50.974Z,7.95
2017-05-05T03:16:51.541Z,7.83
2017-05-05T03:17:52.113Z,7.97
2017-05-05T03:18:52.685Z,7.94
2017-05-05T03:19:53.257Z,7.95
2017-05-05T03:20:53.830Z,7.93
2017-05-05T03:21:54.403Z,7.91
2017-05-05T03:22:54.972Z,7.90
2017-05-05T03:23:55.543Z,7.90
2017-05-05T03:24:56.114Z,7.95
2017-05-05T03:25:56.686Z,7.97
2017-05-05T03:26:57.259Z,7.98
2017-05-05T03:27:57.832Z,8.05
2017-05-05T03:28:58.405Z,7.98
2017-05-05T03:29:58.977Z,8.00
2017-05-05T03:30:59.550Z,8.01
2017-05-05T03:32:00.123Z,7.98
2017-05-05T03:33:00.708Z,7.91
2017-05-05T03:34:01.282Z,8.06
2017-05-05T03:35:01.853Z,7.87
2017-05-05T03:36:02.426Z,7.87
2017-05-05T03:37:02.997Z,7.90
2017-05-05T03:38:03.571Z,8.05
2017-05-05T03:39:04.157Z,7.95
2017-05-05T03:40:04.730Z,7.90
2017-05-05T03:41:05.302Z,7.93
2017-05-05T03:42:05.874Z,7.94
2017-05-05T03:43:06.444Z,7.97
2017-05-05T03:44:07.030Z,7.97
2017-05-05T03:45:07.601Z,7.91
2017-05-05T03:46:08.173Z,7.95
2017-05-05T03:47:08.745Z,7.94
2017-05-05T03:48:09.332Z,7.91
2017-05-05T03:49:09.907Z,7.94
2017-05-05T03:50:10.479Z,7.94
2017-05-05T03:51:11.051Z,7.88
2017-05-05T03:52:11.621Z,8.00
2017-05-05T03:53:12.193Z,7.95
2017-05-05T03:54:12.765Z,7.91
2017-05-05T03:55:13.336Z,7.91
2017-05-05T03:56:13.908Z,7.93
2017-05-05T03:57:14.479Z,7.93
2017-05-05T03:58:15.053Z,7.91
2017-05-05T03:59:15.625Z,7.85
2017-05-05T04:00:16.198Z,7.88
2017-05-05T04:01:16.769Z,8.00
2017-05-05T04:02:17.343Z,7.97
2017-05-05T04:03:17.914Z,7.90
2017-05-05T04:04:18.485Z,7.95
2017-05-05T04:05:19.057Z,7.91
2017-05-05T04:06:19.629Z,7.93
2017-05-05T04:07:20.201Z,7.97
2017-05-05T04:08:20.772Z,7.91
2017-05-05T04:09:21.343Z,7.93
2017-05-05T04:10:21.914Z,7.94
2017-05-05T04:11:22.486Z,7.95
2017-05-05T04:12:23.056Z,7.88
2017-05-05T04:13:23.630Z,7.93
2017-05-05T04:14:24.203Z,7.95
2017-05-05T04:15:24.788Z,7.97
2017-05-05T04:16:25.360Z,7.90
2017-05-05T04:17:25.932Z,7.98
2017-05-05T04:18:26.517Z,7.93
2017-05-05T04:19:27.088Z,7.95
2017-05-05T04:20:27.661Z,7.95
2017-05-05T04:21:28.234Z,8.08
2017-05-05T04:22:28.805Z,8.01
2017-05-05T04:23:29.382Z,8.05
2017-05-05T04:24:29.956Z,8.03
2017-05-05T04:25:30.539Z,7.95
2017-05-05T04:26:31.112Z,7.93
2017-05-05T04:27:31.686Z,8.10
2017-05-05T04:28:32.262Z,8.00
2017-05-05T04:29:32.850Z,8.03
2017-05-05T04:30:33.422Z,7.95
2017-05-05T04:31:34.000Z,8.10
2017-05-05T04:32:34.571Z,8.08
2017-05-05T04:33:35.144Z,8.01
2017-05-05T04:34:35.716Z,8.08
2017-05-05T04:35:36.289Z,7.94
2017-05-05T04:36:36.866Z,7.91
2017-05-05T04:37:37.437Z,7.91
2017-05-05T04:38:38.011Z,7.97
2017-05-05T04:39:38.583Z,7.94
2017-05-05T04:40:39.155Z,7.91
2017-05-05T04:41:39.731Z,7.94
2017-05-05T04:42:40.300Z,7.91
2017-05-05T04:43:40.874Z,8.08
2017-05-05T04:44:41.447Z,7.98
2017-05-05T04:45:42.023Z,7.98
2017-05-05T04:46:42.593Z,8.00
2017-05-05T04:47:43.172Z,8.03
2017-05-05T04:48:43.739Z,8.05
2017-05-05T04:49:44.313Z,8.06
2017-05-05T04:50:44.885Z,8.01
2017-05-05T04:51:45.472Z,7.94
2017-05-05T04:52:46.044Z,8.05
2017-05-05T04:53:46.618Z,8.05
2017-05-05T04:54:47.204Z,7.97
2017-05-05T04:55:47.777Z,7.94
2017-05-05T04:56:48.365Z,7.93
2017-05-05T04:57:48.937Z,7.87
2017-05-05T04:58:49.511Z,8.00
2017-05-05T04:59:50.083Z,8.01
2017-05-05T05:00:50.656Z,8.12
2017-05-05T05:01:51.230Z,8.03
2017-05-05T05:02:51.803Z,8.05
2017-05-05T05:03:52.378Z,8.01
2017-05-05T05:04:52.949Z,8.00
2017-05-05T05:05:53.521Z,8.08
2017-05-05T05:06:54.095Z,8.01
2017-05-05T05:07:54.667Z,8.03
2017-05-05T05:08:55.241Z,8.09
2017-05-05T05:09:55.813Z,8.03
2017-05-05T05:10:56.388Z,8.08
2017-05-05T05:11:56.960Z,8.01
2017-05-05T05:12:57.536Z,7.88
2017-05-05T05:13:58.107Z,7.93
2017-05-05T05:14:58.679Z,7.90
2017-05-05T05:15:59.252Z,7.97
2017-05-05T05:16:59.825Z,8.03
2017-05-05T05:18:00.399Z,8.00
2017-05-05T05:19:00.988Z,8.09
2017-05-05T05:20:01.561Z,8.08
2017-05-05T05:21:02.136Z,7.91
2017-05-05T05:22:02.708Z,7.93
2017-05-05T05:23:03.282Z,7.91
2017-05-05T05:24:03.856Z,7.95
2017-05-05T05:25:04.428Z,7.91
2017-05-05T05:26:05.001Z,7.95
2017-05-05T05:27:05.578Z,8.03
2017-05-05T05:28:06.148Z,8.08
2017-05-05T05:29:06.720Z,8.05
2017-05-05T05:30:07.296Z,7.98
2017-05-05T05:31:07.867Z,7.87
2017-05-05T05:32:08.440Z,7.95
2017-05-05T05:33:09.014Z,7.93
2017-05-05T05:34:09.586Z,7.87
2017-05-05T05:35:10.159Z,7.95
2017-05-05T05:36:10.733Z,8.05
2017-05-05T05:37:11.307Z,7.95
2017-05-05T05:38:11.878Z,8.10
2017-05-05T05:39:12.452Z,8.10
2017-05-05T05:40:13.027Z,7.98
2017-05-05T05:41:13.598Z,8.01
2017-05-05T05:42:14.169Z,8.00
2017-05-05T05:43:14.742Z,8.09
2017-05-05T05:44:15.321Z,8.08
2017-05-05T05:45:15.889Z,8.03
2017-05-05T05:46:16.464Z,7.97
2017-05-05T05:47:17.037Z,7.97
2017-05-05T05:48:17.611Z,8.09
2017-05-05T05:49:18.186Z,8.03
2017-05-05T05:50:18.757Z,8.06
2017-05-05T05:51:19.333Z,8.01
2017-05-05T05:52:19.911Z,8.08
2017-05-05T05:53:20.481Z,8.01
2017-05-05T05:54:21.054Z,8.03
2017-05-05T05:55:21.629Z,7.95
2017-05-05T05:56:22.202Z,7.90
2017-05-05T05:57:22.774Z,7.91
2017-05-05T05:58:23.350Z,8.01
2017-05-05T05:59:23.922Z,8.08
2017-05-05T06:00:24.500Z,8.09
2017-05-05T06:01:25.069Z,7.97
2017-05-05T06:02:25.640Z,7.90
2017-05-05T06:03:26.213Z,7.85
2017-05-05T06:04:26.787Z,8.01
2017-05-05T06:05:27.359Z,7.95
2017-05-05T06:06:27.935Z,8.00
2017-05-05T06:07:28.510Z,8.05
2017-05-05T06:08:29.084Z,7.95
2017-05-05T06:09:29.657Z,7.95
2017-05-05T06:10:30.230Z,7.93
2017-05-05T06:11:30.804Z,7.90
2017-05-05T06:12:31.379Z,7.97
2017-05-05T06:13:31.952Z,7.93
2017-05-05T06:14:32.528Z,8.08
2017-05-05T06:15:33.102Z,8.05
2017-05-05T06:16:33.689Z,7.91
2017-05-05T06:17:34.262Z,7.85
2017-05-05T06:18:34.836Z,7.98
2017-05-05T06:19:35.412Z,8.08
2017-05-05T06:20:35.985Z,7.94
2017-05-05T06:21:36.560Z,7.93
2017-05-05T06:22:37.136Z,7.91
2017-05-05T06:23:37.709Z,8.03
2017-05-05T06:24:38.282Z,7.82
2017-05-05T06:25:38.870Z,7.91
2017-05-05T06:26:39.444Z,7.90
2017-05-05T06:27:40.034Z,7.94
2017-05-05T06:28:40.607Z,7.90
2017-05-05T06:29:41.184Z,7.91
2017-05-05T06:30:41.771Z,7.83
2017-05-05T06:31:42.346Z,7.90
2017-05-05T06:32:42.921Z,7.94
2017-05-05T06:33:43.495Z,7.88
2017-05-05T06:34:44.069Z,7.90
2017-05-05T06:35:44.641Z,7.83
2017-05-05T06:36:45.230Z,7.85
2017-05-05T06:37:45.802Z,7.88
2017-05-05T06:38:46.378Z,7.90
2017-05-05T06:39:46.951Z,7.79
2017-05-05T06:40:47.525Z,7.80
2017-05-05T06:41:48.100Z,7.88
2017-05-05T06:42:48.674Z,7.83
2017-05-05T06:43:49.248Z,8.08
2017-05-05T06:44:49.823Z,7.93
2017-05-05T06:45:50.398Z,7.91
2017-05-05T06:46:50.973Z,8.00
2017-05-05T06:47:51.546Z,7.91
2017-05-05T06:48:52.139Z,7.90
2017-05-05T06:49:52.709Z,7.76
2017-05-05T06:50:53.281Z,7.85
2017-05-05T06:51:53.855Z,7.87
2017-05-05T06:52:54.443Z,7.85
2017-05-05T06:53:55.015Z,7.91
2017-05-05T06:54:55.591Z,8.01
2017-05-05T06:55:56.166Z,7.97
2017-05-05T06:56:56.741Z,8.01
2017-05-05T06:57:57.316Z,7.93
2017-05-05T06:58:57.894Z,8.00
2017-05-05T06:59:58.478Z,7.94
2017-05-05T07:00:59.052Z,7.95
2017-05-05T07:01:59.628Z,7.94
2017-05-05T07:03:00.216Z,7.93
2017-05-05T07:04:00.792Z,8.01
2017-05-05T07:05:01.380Z,8.05
2017-05-05T07:06:01.956Z,8.05
2017-05-05T07:07:02.534Z,8.00
2017-05-05T07:08:03.120Z,8.15
2017-05-05T07:09:03.694Z,8.13
2017-05-05T07:10:04.268Z,8.12
2017-05-05T07:11:04.841Z,8.31
2017-05-05T07:12:05.415Z,8.13
2017-05-05T07:13:05.991Z,8.26
2017-05-05T07:14:06.566Z,8.19
2017-05-05T07:15:07.137Z,8.20
2017-05-05T07:16:07.711Z,8.23
2017-05-05T07:17:08.283Z,8.30
2017-05-05T07:18:08.859Z,8.26
2017-05-05T07:19:09.434Z,8.30
2017-05-05T07:20:10.009Z,8.12
2017-05-05T07:21:10.583Z,8.28
2017-05-05T07:22:11.159Z,8.24
2017-05-05T07:23:11.746Z,8.30
2017-05-05T07:24:12.320Z,8.23
2017-05-05T07:25:12.895Z,8.26
2017-05-05T07:26:13.469Z,8.26
2017-05-05T07:27:14.042Z,8.36
2017-05-05T07:28:14.630Z,8.33
2017-05-05T07:29:15.208Z,8.37
2017-05-05T07:30:15.781Z,8.37
2017-05-05T07:31:16.354Z,8.38
2017-05-05T07:32:16.927Z,8.27
2017-05-05T07:33:17.503Z,8.33
2017-05-05T07:34:18.079Z,8.30
2017-05-05T07:35:18.653Z,8.31
2017-05-05T07:36:19.229Z,8.36
2017-05-05T07:37:19.802Z,8.42
2017-05-05T07:38:20.378Z,8.44
2017-05-05T07:39:20.956Z,8.46
2017-05-05T07:40:21.530Z,8.61
2017-05-05T07:41:22.107Z,8.82
2017-05-05T07:42:22.683Z,9.46
2017-05-05T07:43:23.258Z,10.46
2017-05-05T07:44:23.835Z,9.47
2017-05-05T07:45:24.409Z,9.19
2017-05-05T07:46:24.986Z,9.51
2017-05-05T07:47:25.563Z,9.79
2017-05-05T07:48:26.137Z,9.61
2017-05-05T07:49:26.713Z,9.65
2017-05-05T07:50:27.289Z,9.92
2017-05-05T07:51:27.866Z,9.44
2017-05-05T07:52:28.445Z,9.41
2017-05-05T07:53:29.020Z,9.76
2017-05-05T07:54:29.596Z,9.87
2017-05-05T07:55:30.175Z,10.20
2017-05-05T07:56:30.749Z,10.33
2017-05-05T07:57:31.324Z,9.91
2017-05-05T07:58:31.900Z,10.19
2017-05-05T07:59:32.477Z,9.69
2017-05-05T08:00:33.055Z,9.44
2017-05-05T08:01:33.630Z,9.80
2017-05-05T08:02:34.204Z,9.61
2017-05-05T08:03:34.782Z,9.29
2017-05-05T08:04:35.357Z,9.39
2017-05-05T08:05:35.933Z,9.02
2017-05-05T08:06:36.508Z,9.25
2017-05-05T08:07:37.083Z,9.62
2017-05-05T08:08:37.660Z,9.82
2017-05-05T08:09:38.236Z,9.56
2017-05-05T08:10:38.811Z,9.58
2017-05-05T08:11:39.386Z,9.43
2017-05-05T08:12:39.961Z,9.23
2017-05-05T08:13:40.539Z,9.22
2017-05-05T08:14:41.127Z,9.00
2017-05-05T08:15:41.704Z,8.97
2017-05-05T08:16:42.282Z,8.97
2017-05-05T08:17:42.857Z,8.92
2017-05-05T08:18:43.434Z,8.95
2017-05-05T08:19:44.011Z,8.88
2017-05-05T08:20:44.587Z,9.10
2017-05-05T08:21:45.164Z,9.18
2017-05-05T08:22:45.739Z,9.23
2017-05-05T08:23:46.317Z,9.10
2017-05-05T08:24:46.896Z,9.06
2017-05-05T08:25:47.471Z,9.11
2017-05-05T08:26:48.060Z,9.04
2017-05-05T08:27:48.637Z,8.97
2017-05-05T08:28:49.213Z,9.06
2017-05-05T08:29:49.790Z,8.87
2017-05-05T08:30:50.380Z,8.78
2017-05-05T08:31:50.959Z,8.67
2017-05-05T08:32:51.534Z,8.63
2017-05-05T08:33:52.110Z,8.84
2017-05-05T08:34:52.686Z,8.74
2017-05-05T08:35:53.263Z,8.48
2017-05-05T08:36:53.839Z,8.60
2017-05-05T08:37:54.414Z,8.67
2017-05-05T08:38:54.990Z,8.61
2017-05-05T08:39:55.567Z,8.88
2017-05-05T08:40:56.143Z,8.76
2017-05-05T08:41:56.719Z,8.60
2017-05-05T08:42:57.294Z,8.89
2017-05-05T08:43:57.868Z,8.89
2017-05-05T08:44:58.460Z,8.78
2017-05-05T08:45:59.046Z,8.87
2017-05-05T08:46:59.622Z,9.08
2017-05-05T08:48:00.198Z,9.18
2017-05-05T08:49:00.774Z,9.16
2017-05-05T08:50:01.350Z,8.81
2017-05-05T08:51:01.925Z,8.87
2017-05-05T08:52:02.501Z,8.91
2017-05-05T08:53:03.076Z,8.91
2017-05-05T08:54:03.655Z,8.88
2017-05-05T08:55:04.246Z,8.74
2017-05-05T08:56:04.834Z,8.88
2017-05-05T08:57:05.412Z,8.99
2017-05-05T08:58:06.001Z,9.06
2017-05-05T08:59:06.578Z,9.29
2017-05-05T09:00:07.159Z,9.03
2017-05-05T09:01:07.731Z,9.06
2017-05-05T09:02:08.307Z,9.02
2017-05-05T09:03:08.885Z,9.10
2017-05-05T09:04:09.461Z,8.95
2017-05-05T09:05:10.036Z,8.84
2017-05-05T09:06:10.613Z,8.74
2017-05-05T09:07:11.201Z,8.64
2017-05-05T09:08:11.779Z,8.61
2017-05-05T09:09:12.355Z,8.69
2017-05-05T09:10:12.932Z,8.87
2017-05-05T09:11:13.508Z,8.95
2017-05-05T09:12:14.086Z,9.06
2017-05-05T09:13:14.663Z,9.00
2017-05-05T09:14:15.237Z,9.10
2017-05-05T09:15:15.814Z,8.78
2017-05-05T09:16:16.390Z,8.89
2017-05-05T09:17:16.965Z,8.88
2017-05-05T09:18:17.543Z,9.08
2017-05-05T09:19:18.120Z,8.85
2017-05-05T09:20:18.694Z,8.95
2017-05-05T09:21:19.273Z,9.04
2017-05-05T09:22:19.848Z,8.95
2017-05-05T09:23:20.425Z,8.88
2017-05-05T09:24:21.002Z,9.06
2017-05-05T09:25:21.582Z,9.16
2017-05-05T09:26:22.157Z,9.08
2017-05-05T09:27:22.733Z,9.26
2017-05-05T09:28:23.309Z,8.94
2017-05-05T09:29:23.886Z,8.91
2017-05-05T09:30:24.460Z,8.97
2017-05-05T09:31:25.037Z,8.94
2017-05-05T09:32:25.612Z,8.91
2017-05-05T09:33:26.187Z,9.03
2017-05-05T09:34:26.765Z,9.06
2017-05-05T09:35:27.355Z,9.06
2017-05-05T09:36:27.932Z,8.88
2017-05-05T09:37:28.510Z,8.85
2017-05-05T09:38:29.086Z,9.10
2017-05-05T09:39:29.662Z,9.23
2017-05-05T09:40:30.239Z,9.26
2017-05-05T09:41:30.815Z,9.26
2017-05-05T09:42:31.389Z,9.23
2017-05-05T09:43:31.964Z,9.28
2017-05-05T09:44:32.539Z,9.23
2017-05-05T09:45:33.119Z,9.25
2017-05-05T09:46:33.694Z,9.31
2017-05-05T09:47:34.269Z,9.21
2017-05-05T09:48:34.845Z,9.10
2017-05-05T09:49:35.421Z,9.03
2017-05-05T09:50:35.998Z,9.21
2017-05-05T09:51:36.574Z,9.23
2017-05-05T09:52:37.150Z,9.21
2017-05-05T09:53:37.727Z,8.92
2017-05-05T09:54:38.304Z,8.85
2017-05-05T09:55:38.880Z,8.95
2017-05-05T09:56:39.456Z,8.87
2017-05-05T09:57:40.046Z,8.89
2017-05-05T09:58:40.620Z,8.85
2017-05-05T09:59:41.197Z,9.08
2017-05-05T10:00:41.775Z,9.13
2017-05-05T10:01:42.352Z,9.21
2017-05-05T10:02:42.929Z,9.08
2017-05-05T10:03:43.506Z,9.04
2017-05-05T10:04:44.084Z,9.06
2017-05-05T10:05:44.658Z,8.89
2017-05-05T10:06:45.235Z,8.99
2017-05-05T10:07:45.812Z,8.92
2017-05-05T10:08:46.387Z,9.04
2017-05-05T10:09:46.966Z,9.06
2017-05-05T10:10:47.541Z,9.11
2017-05-05T10:11:48.115Z,9.13
2017-05-05T10:12:48.693Z,9.16
2017-05-05T10:13:49.269Z,9.14
2017-05-05T10:14:49.845Z,9.21
2017-05-05T10:15:50.419Z,9.23
2017-05-05T10:16:50.995Z,9.06
2017-05-05T10:17:51.572Z,8.95
2017-05-05T10:18:52.148Z,9.10
2017-05-05T10:19:52.738Z,9.19
2017-05-05T10:20:53.340Z,9.29
2017-05-05T10:21:53.891Z,9.31
2017-05-05T10:22:54.467Z,9.36
2017-05-05T10:23:55.045Z,9.36
2017-05-05T10:24:55.621Z,9.34
2017-05-05T10:25:56.200Z,9.36
2017-05-05T10:26:56.772Z,9.41
2017-05-05T10:27:57.364Z,9.51
2017-05-05T10:28:57.940Z,9.54
2017-05-05T10:29:58.519Z,9.44
2017-05-05T10:30:59.109Z,9.41
2017-05-05T10:31:59.685Z,9.54
2017-05-05T10:33:00.261Z,9.51
2017-05-05T10:34:00.836Z,9.68
2017-05-05T10:35:01.413Z,9.83
2017-05-05T10:36:02.001Z,9.95
2017-05-05T10:37:02.577Z,9.83
2017-05-05T10:38:03.155Z,9.77
2017-05-05T10:39:03.731Z,9.77
2017-05-05T10:40:04.309Z,9.84
2017-05-05T10:41:04.887Z,9.76
2017-05-05T10:42:05.475Z,9.59
2017-05-05T10:43:06.064Z,9.46
2017-05-05T10:44:06.641Z,9.62
2017-05-05T10:45:07.219Z,9.77
2017-05-05T10:46:07.797Z,9.54
2017-05-05T10:47:08.373Z,9.59
2017-05-05T10:48:08.950Z,9.66
2017-05-05T10:49:09.529Z,9.64
2017-05-05T10:50:10.105Z,9.74
2017-05-05T10:51:10.679Z,9.50
2017-05-05T10:52:11.255Z,9.43
2017-05-05T10:53:11.832Z,9.28
2017-05-05T10:54:12.409Z,9.36
2017-05-05T10:55:12.990Z,9.47
2017-05-05T10:56:13.574Z,9.21
2017-05-05T10:57:14.154Z,9.21
2017-05-05T10:58:14.728Z,9.23
2017-05-05T10:59:15.306Z,9.36
2017-05-05T11:00:15.885Z,9.39
2017-05-05T11:01:16.461Z,9.56
2017-05-05T11:02:17.037Z,9.64
2017-05-05T11:03:17.616Z,9.61
2017-05-05T11:04:18.191Z,9.74
2017-05-05T11:05:18.768Z,9.68
2017-05-05T11:06:19.344Z,9.50
2017-05-05T11:07:19.922Z,9.62
2017-05-05T11:08:20.501Z,9.66
2017-05-05T11:09:21.075Z,9.44
2017-05-05T11:10:21.652Z,9.37
2017-05-05T11:11:22.227Z,9.26
2017-05-05T11:12:22.803Z,9.13
2017-05-05T11:13:23.392Z,9.21
2017-05-05T11:14:23.974Z,9.29
2017-05-05T11:15:24.547Z,9.39
2017-05-05T11:16:25.125Z,9.39
2017-05-05T11:17:25.700Z,9.28
2017-05-05T11:18:26.277Z,9.36
2017-05-05T11:19:26.857Z,9.32
2017-05-05T11:20:27.430Z,9.39
2017-05-05T11:21:28.005Z,9.44
2017-05-05T11:22:28.582Z,9.32
2017-05-05T11:23:29.157Z,9.31
2017-05-05T11:24:29.741Z,9.47
2017-05-05T11:25:30.310Z,9.58
2017-05-05T11:26:30.885Z,9.65
2017-05-05T11:27:31.463Z,9.58
2017-05-05T11:28:32.038Z,9.68
2017-05-05T11:29:32.615Z,9.94
2017-05-05T11:30:33.191Z,9.72
2017-05-05T11:31:33.766Z,9.76
2017-05-05T11:32:34.345Z,9.69
2017-05-05T11:33:34.920Z,9.77
2017-05-05T11:34:35.509Z,9.76
2017-05-05T11:35:36.087Z,9.77
2017-05-05T11:36:36.664Z,9.72
2017-05-05T11:37:37.254Z,9.66
2017-05-05T11:38:37.830Z,9.82
2017-05-05T11:39:38.406Z,9.79
2017-05-05T11:40:38.983Z,9.79
2017-05-05T11:41:39.561Z,9.83
2017-05-05T11:42:40.137Z,9.98
2017-05-05T11:43:40.716Z,10.04
2017-05-05T11:44:41.306Z,10.09
2017-05-05T11:45:41.888Z,9.91
2017-05-05T11:46:42.461Z,9.54
2017-05-05T11:47:43.038Z,9.74
2017-05-05T11:48:43.614Z,9.55
2017-05-05T11:49:44.190Z,9.76
2017-05-05T11:50:44.769Z,9.92
2017-05-05T11:51:45.345Z,10.17
2017-05-05T11:52:45.922Z,10.20
2017-05-05T11:53:46.508Z,10.25
2017-05-05T11:54:47.077Z,10.19
2017-05-05T11:55:47.657Z,10.23
2017-05-05T11:56:48.234Z,10.35
2017-05-05T11:57:48.812Z,10.17
2017-05-05T11:58:49.391Z,10.20
2017-05-05T11:59:49.969Z,10.09
2017-05-05T12:00:50.547Z,10.37
2017-05-05T12:01:51.126Z,10.59
2017-05-05T12:02:51.704Z,10.54
2017-05-05T12:03:52.282Z,10.57
2017-05-05T12:04:52.875Z,10.51
2017-05-05T12:05:53.456Z,10.82
2017-05-05T12:06:54.032Z,10.92
2017-05-05T12:07:54.611Z,10.79
2017-05-05T12:08:55.187Z,10.53
2017-05-05T12:09:55.766Z,10.54
2017-05-05T12:10:56.353Z,10.33
2017-05-05T12:11:56.940Z,10.20
2017-05-05T12:12:57.515Z,10.34
2017-05-05T12:13:58.092Z,10.54
2017-05-05T12:14:58.674Z,10.38
2017-05-05T12:15:59.251Z,10.20
2017-05-05T12:16:59.829Z,10.44
2017-05-05T12:18:00.409Z,10.33
2017-05-05T12:19:00.985Z,10.26
2017-05-05T12:20:01.564Z,10.28
2017-05-05T12:21:02.143Z,10.33
2017-05-05T12:22:02.720Z,10.25
2017-05-05T12:23:03.301Z,10.41
2017-05-05T12:24:03.877Z,10.40
2017-05-05T12:25:04.455Z,10.37
2017-05-05T12:26:05.036Z,10.59
2017-05-05T12:27:05.626Z,10.60
2017-05-05T12:28:06.217Z,10.78
2017-05-05T12:29:06.796Z,10.87
2017-05-05T12:30:07.374Z,11.14
2017-05-05T12:31:07.951Z,10.92
2017-05-05T12:32:08.530Z,11.10
2017-05-05T12:33:09.110Z,10.99
2017-05-05T12:34:09.689Z,10.67
2017-05-05T12:35:10.267Z,10.97
2017-05-05T12:36:10.847Z,11.05
2017-05-05T12:37:11.425Z,11.23
2017-05-05T12:38:12.003Z,11.15
2017-05-05T12:39:12.582Z,11.08
2017-05-05T12:40:13.161Z,10.96
2017-05-05T12:41:13.741Z,11.08
2017-05-05T12:42:14.318Z,10.84
2017-05-05T12:43:14.897Z,10.64
2017-05-05T12:44:15.477Z,10.44
2017-05-05T12:45:16.057Z,10.69
2017-05-05T12:46:16.635Z,10.64
2017-05-05T12:47:17.216Z,10.87
2017-05-05T12:48:17.794Z,10.90
2017-05-05T12:49:18.372Z,10.92
2017-05-05T12:50:18.951Z,11.11
2017-05-05T12:51:19.528Z,11.26
2017-05-05T12:52:20.110Z,11.47
2017-05-05T12:53:20.700Z,11.30
2017-05-05T12:54:21.278Z,11.15
2017-05-05T12:55:21.857Z,11.30
2017-05-05T12:56:22.438Z,11.29
2017-05-05T12:57:23.030Z,11.27
2017-05-05T12:58:23.622Z,11.27
2017-05-05T12:59:24.200Z,11.18
2017-05-05T13:00:24.778Z,11.04
2017-05-05T13:01:25.359Z,10.93
2017-05-05T13:02:25.936Z,10.69
2017-05-05T13:03:26.514Z,10.72
2017-05-05T13:04:27.093Z,10.75
2017-05-05T13:05:27.671Z,10.71
2017-05-05T13:06:28.252Z,10.72
2017-05-05T13:07:28.831Z,10.76
2017-05-05T13:08:29.410Z,10.74
2017-05-05T13:09:29.991Z,10.71
2017-05-05T13:10:30.567Z,10.93
2017-05-05T13:11:31.145Z,10.93
2017-05-05T13:12:31.725Z,10.94
2017-05-05T13:13:32.303Z,11.12
2017-05-05T13:14:32.895Z,11.14
2017-05-05T13:15:33.474Z,11.19
2017-05-05T13:16:34.053Z,11.05
2017-05-05T13:17:34.632Z,11.26
2017-05-05T13:18:35.213Z,11.48
2017-05-05T13:19:35.807Z,11.26
2017-05-05T13:20:36.385Z,11.11
2017-05-05T13:21:36.966Z,11.23
2017-05-05T13:22:37.546Z,11.27
2017-05-05T13:23:38.140Z,10.99